createdAt,value
2023-01-27T00:00:41.588Z,-3.14
2023-01-27T00:01:41.000Z,-3.17
2023-01-27T00:02:43.249Z,-3.18
2023-01-27T00:03:41.408Z,-3.12
2023-01-27T00:04:41.477Z,-3.17
2023-01-27T00:05:41.481Z,-3.11
2023-01-27T00:06:41.153Z,-3.06
2023-01-27T00:07:46.290Z,-3.14
2023-01-27T00:08:41.149Z,-3.14
2023-01-27T00:09:41.089Z,-3.14
2023-01-27T00:10:41.354Z,-3.12
2023-01-27T00:11:41.052Z,-3.12
2023-01-27T00:12:41.284Z,-3.09
2023-01-27T00:13:41.286Z,-3.12
2023-01-27T00:14:41.239Z,-3.15
2023-01-27T00:15:41.355Z,-3.07
2023-01-27T00:16:41.170Z,-3.14
2023-01-27T00:17:41.139Z,-3.19
2023-01-27T00:18:41.378Z,-3.21
2023-01-27T00:19:41.365Z,-3.21
2023-01-27T00:20:41.120Z,-3.28
2023-01-27T00:21:41.367Z,-3.3
2023-01-27T00:22:41.282Z,-3.29
2023-01-27T00:23:41.305Z,-3.29
2023-01-27T00:24:41.284Z,-3.29
2023-01-27T00:25:40.712Z,-3.35
2023-01-27T00:26:41.234Z,-3.33
2023-01-27T00:27:41.289Z,-3.33
2023-01-27T00:28:41.173Z,-3.35
2023-01-27T00:29:41.157Z,-3.3
2023-01-27T00:30:40.684Z,-3.32
2023-01-27T00:31:41.391Z,-3.33
2023-01-27T00:32:40.832Z,-3.25
2023-01-27T00:33:41.066Z,-3.32
2023-01-27T00:34:40.772Z,-3.32
2023-01-27T00:35:41.024Z,-3.29
2023-01-27T00:36:41.122Z,-3.29
2023-01-27T00:37:40.769Z,-3.24
2023-01-27T00:38:40.938Z,-3.17
2023-01-27T00:39:40.926Z,-3.15
2023-01-27T00:40:40.904Z,-3.29
2023-01-27T00:41:40.913Z,-3.21
2023-01-27T00:42:40.601Z,-3.18
2023-01-27T00:43:40.327Z,-3.15
2023-01-27T00:44:40.592Z,-3.15
2023-01-27T00:45:40.538Z,-3.15
2023-01-27T00:46:40.864Z,-3.19
2023-01-27T00:47:40.808Z,-3.18
2023-01-27T00:48:40.229Z,-3.24
2023-01-27T00:49:40.702Z,-3.14
2023-01-27T00:50:40.671Z,-3.18
2023-01-27T00:51:40.713Z,-3.19
2023-01-27T00:52:40.411Z,-3.19
2023-01-27T00:53:40.402Z,-3.21
2023-01-27T00:54:40.592Z,-3.19
2023-01-27T00:55:40.090Z,-3.19
2023-01-27T00:56:40.566Z,-3.14
2023-01-27T00:57:40.564Z,-3.21
2023-01-27T00:58:40.280Z,-3.22
2023-01-27T00:59:40.493Z,-3.28
2023-01-27T01:00:40.530Z,-3.22
2023-01-27T01:01:40.689Z,-3.18
2023-01-27T01:02:40.649Z,-3.17
2023-01-27T01:03:40.399Z,-3.14
2023-01-27T01:04:40.121Z,-3.17
2023-01-27T01:05:40.118Z,-3.25
2023-01-27T01:06:40.371Z,-3.22
2023-01-27T01:07:40.066Z,-3.21
2023-01-27T01:08:40.092Z,-3.29
2023-01-27T01:09:40.312Z,-3.24
2023-01-27T01:10:39.991Z,-3.25
2023-01-27T01:11:39.965Z,-3.22
2023-01-27T01:12:40.206Z,-3.19
2023-01-27T01:13:39.943Z,-3.14
2023-01-27T01:14:39.918Z,-3.24
2023-01-27T01:15:39.950Z,-3.32
2023-01-27T01:16:39.871Z,-3.28
2023-01-27T01:17:40.099Z,-3.19
2023-01-27T01:18:39.842Z,-3.32
2023-01-27T01:19:39.803Z,-3.17
2023-01-27T01:20:39.785Z,-3.15
2023-01-27T01:21:42.278Z,-3.15
2023-01-27T01:22:39.768Z,-3.09
2023-01-27T01:23:39.718Z,-3.01
2023-01-27T01:24:39.711Z,-3.15
2023-01-27T01:25:40.040Z,-3
2023-01-27T01:26:39.637Z,-3.06
2023-01-27T01:27:39.889Z,-3.09
2023-01-27T01:28:39.856Z,-3.15
2023-01-27T01:29:39.822Z,-3.07
2023-01-27T01:30:39.697Z,-3.14
2023-01-27T01:31:39.726Z,-3.14
2023-01-27T01:32:39.499Z,-3.15
2023-01-27T01:34:39.718Z,-3.15
2023-01-27T01:35:39.738Z,-3.19
2023-01-27T01:36:39.827Z,-3.18
2023-01-27T01:37:39.408Z,-3.18
2023-01-27T01:38:39.380Z,-3.21
2023-01-27T01:39:39.357Z,-3.19
2023-01-27T01:40:39.629Z,-3.19
2023-01-27T01:41:39.662Z,-3.21
2023-01-27T01:42:39.307Z,-3.28
2023-01-27T01:43:39.262Z,-3.32
2023-01-27T01:44:39.281Z,-3.32
2023-01-27T01:45:39.258Z,-3.29
2023-01-27T01:46:39.134Z,-3.29
2023-01-27T01:47:39.181Z,-3.25
2023-01-27T01:48:39.428Z,-3.29
2023-01-27T01:49:39.415Z,-3.33
2023-01-27T01:50:39.420Z,-3.29
2023-01-27T01:51:39.409Z,-3.33
2023-01-27T01:52:39.337Z,-3.36
2023-01-27T01:53:39.060Z,-3.36
2023-01-27T01:54:39.299Z,-3.35
2023-01-27T01:55:39.278Z,-3.35
2023-01-27T01:56:39.293Z,-3.36
2023-01-27T01:57:39.298Z,-3.28
2023-01-27T01:58:39.031Z,-3.25
2023-01-27T01:59:39.164Z,-3.25
2023-01-27T02:00:38.901Z,-3.21
2023-01-27T02:01:39.131Z,-3.21
2023-01-27T02:02:38.973Z,-3.3
2023-01-27T02:03:39.626Z,-3.07
2023-01-27T02:04:39.536Z,-3.15
2023-01-27T02:05:39.512Z,-3.11
2023-01-27T02:06:39.225Z,-3.01
2023-01-27T02:07:39.467Z,-3.12
2023-01-27T02:08:39.189Z,-3.07
2023-01-27T02:09:39.152Z,-3.04
2023-01-27T02:10:39.145Z,-3.11
2023-01-27T02:11:39.430Z,-3.04
2023-01-27T02:12:39.394Z,-3.04
2023-01-27T02:13:39.381Z,-3.11
2023-01-27T02:14:38.800Z,-3.07
2023-01-27T02:15:39.039Z,-3.07
2023-01-27T02:16:39.510Z,-2.99
2023-01-27T02:17:39.248Z,-3
2023-01-27T02:18:38.971Z,-3.07
2023-01-27T02:19:39.212Z,-3
2023-01-27T02:20:39.023Z,-3
2023-01-27T02:21:39.164Z,-3.01
2023-01-27T02:22:39.130Z,-2.99
2023-01-27T02:23:38.613Z,-3.09
2023-01-27T02:24:38.872Z,-3
2023-01-27T02:25:39.079Z,-3.04
2023-01-27T02:26:39.059Z,-3.01
2023-01-27T02:27:38.766Z,-3
2023-01-27T02:28:38.768Z,-3.04
2023-01-27T02:29:39.040Z,-3.01
2023-01-27T02:30:39.408Z,-3.03
2023-01-27T02:31:39.162Z,-3
2023-01-27T02:32:40.524Z,-3.09
2023-01-27T02:33:38.653Z,-3.03
2023-01-27T02:34:38.606Z,-3.03
2023-01-27T02:35:38.877Z,-3.03
2023-01-27T02:36:38.833Z,-3.07
2023-01-27T02:37:38.549Z,-3.09
2023-01-27T02:38:38.548Z,-2.97
2023-01-27T02:39:38.520Z,-3.04
2023-01-27T02:40:38.756Z,-2.99
2023-01-27T02:41:38.754Z,-3.01
2023-01-27T02:42:38.702Z,-3.07
2023-01-27T02:43:38.430Z,-3
2023-01-27T02:44:38.708Z,-2.97
2023-01-27T02:45:38.679Z,-3.03
2023-01-27T02:46:38.634Z,-3.03
2023-01-27T02:47:38.357Z,-2.93
2023-01-27T02:48:38.592Z,-2.96
2023-01-27T02:49:38.566Z,-2.85
2023-01-27T02:50:38.543Z,-2.9
2023-01-27T02:51:38.269Z,-2.9
2023-01-27T02:52:38.481Z,-2.86
2023-01-27T02:53:38.603Z,-2.86
2023-01-27T02:54:38.177Z,-2.83
2023-01-27T02:55:38.405Z,-2.88
2023-01-27T02:56:37.918Z,-2.85
2023-01-27T02:57:38.359Z,-2.94
2023-01-27T02:58:38.101Z,-2.79
2023-01-27T02:59:38.321Z,-2.85
2023-01-27T03:00:38.096Z,-2.78
2023-01-27T03:01:38.516Z,-2.86
2023-01-27T03:02:38.281Z,-2.88
2023-01-27T03:03:38.277Z,-2.85
2023-01-27T03:04:38.214Z,-2.82
2023-01-27T03:05:38.275Z,-2.9
2023-01-27T03:06:38.177Z,-2.82
2023-01-27T03:07:38.153Z,-2.82
2023-01-27T03:08:37.882Z,-2.83
2023-01-27T03:09:37.844Z,-2.81
2023-01-27T03:10:37.828Z,-2.86
2023-01-27T03:11:37.850Z,-2.88
2023-01-27T03:12:37.531Z,-2.83
2023-01-27T03:13:38.033Z,-2.9
2023-01-27T03:14:38.066Z,-2.86
2023-01-27T03:15:37.829Z,-2.85
2023-01-27T03:16:37.993Z,-2.85
2023-01-27T03:17:37.742Z,-2.82
2023-01-27T03:18:37.931Z,-2.83
2023-01-27T03:19:37.894Z,-2.85
2023-01-27T03:20:37.878Z,-2.85
2023-01-27T03:21:37.854Z,-2.88
2023-01-27T03:22:37.573Z,-2.82
2023-01-27T03:23:37.541Z,-2.82
2023-01-27T03:24:39.574Z,-2.81
2023-01-27T03:25:37.757Z,-2.73
2023-01-27T03:26:37.774Z,-2.85
2023-01-27T03:27:37.750Z,-2.85
2023-01-27T03:28:37.194Z,-2.81
2023-01-27T03:29:38.148Z,-2.85
2023-01-27T03:30:38.624Z,-2.86
2023-01-27T03:31:38.415Z,-2.86
2023-01-27T03:32:38.478Z,-2.83
2023-01-27T03:50:03.247Z,-3.06
2023-01-27T03:51:03.136Z,-3.14
2023-01-27T03:52:02.654Z,-3.15
2023-01-27T03:53:03.367Z,-3.11
2023-01-27T03:54:03.095Z,-3
2023-01-27T03:55:02.792Z,-3
2023-01-27T03:56:02.776Z,-3.07
2023-01-27T03:57:02.747Z,-3.04
2023-01-27T03:58:02.716Z,-3.12
2023-01-27T03:59:02.983Z,-3.07
2023-01-27T04:00:02.689Z,-3.11
2023-01-27T04:01:02.936Z,-3.03
2023-01-27T04:02:02.891Z,-3.03
2023-01-27T04:03:02.790Z,-3.09
2023-01-27T04:04:02.875Z,-3.01
2023-01-27T04:05:02.608Z,-3.01
2023-01-27T04:06:02.883Z,-3.03
2023-01-27T04:07:02.554Z,-3.07
2023-01-27T04:08:02.800Z,-3.04
2023-01-27T04:09:02.752Z,-3.04
2023-01-27T04:10:02.413Z,-3.03
2023-01-27T04:11:02.689Z,-3.09
2023-01-27T04:12:02.971Z,-3.06
2023-01-27T04:13:02.398Z,-3.06
2023-01-27T04:14:02.626Z,-3.03
2023-01-27T04:15:02.372Z,-3.03
2023-01-27T04:16:02.556Z,-3.07
2023-01-27T04:17:02.574Z,-3.04
2023-01-27T04:18:02.546Z,-3.07
2023-01-27T04:19:02.280Z,-3.01
2023-01-27T04:20:02.295Z,-3.06
2023-01-27T04:21:02.218Z,-3.07
2023-01-27T04:22:02.984Z,-3.09
2023-01-27T04:23:02.618Z,-2.96
2023-01-27T04:24:02.518Z,-3.07
2023-01-27T04:25:02.583Z,-3.06
2023-01-27T04:26:02.572Z,-3.09
2023-01-27T04:27:02.599Z,-3.06
2023-01-27T04:28:02.808Z,-3.07
2023-01-27T04:29:02.763Z,-3.04
2023-01-27T04:30:02.538Z,-2.93
2023-01-27T04:31:02.645Z,-3.03
2023-01-27T04:32:02.957Z,-3.11
2023-01-27T04:33:02.707Z,-3.04
2023-01-27T04:34:02.417Z,-3.09
2023-01-27T04:35:02.394Z,-3.04
2023-01-27T04:36:02.349Z,-3.09
2023-01-27T04:37:02.107Z,-2.99
2023-01-27T04:38:02.625Z,-3.01
2023-01-27T04:39:02.528Z,-3.06
2023-01-27T04:40:02.277Z,-3.01
2023-01-27T04:41:02.344Z,-2.94
2023-01-27T04:42:02.242Z,-2.96
2023-01-27T04:43:02.193Z,-2.96
2023-01-27T04:44:02.424Z,-2.94
2023-01-27T04:45:02.147Z,-2.99
2023-01-27T04:46:02.482Z,-2.94
2023-01-27T04:47:02.429Z,-2.93
2023-01-27T04:48:02.487Z,-2.88
2023-01-27T04:49:02.314Z,-2.9
2023-01-27T04:50:02.041Z,-2.9
2023-01-27T04:51:02.263Z,-2.83
2023-01-27T04:52:02.025Z,-2.83
2023-01-27T04:53:02.224Z,-2.86
2023-01-27T04:54:02.387Z,-2.78
2023-01-27T04:55:01.941Z,-2.82
2023-01-27T04:56:02.176Z,-2.78
2023-01-27T04:57:01.896Z,-2.85
2023-01-27T04:58:02.175Z,-2.83
2023-01-27T04:59:02.087Z,-2.81
2023-01-27T05:00:01.816Z,-2.83
2023-01-27T05:01:02.074Z,-2.85
2023-01-27T05:02:02.339Z,-2.79
2023-01-27T05:03:02.234Z,-2.82
2023-01-27T05:04:01.766Z,-2.85
2023-01-27T05:05:01.738Z,-2.83
2023-01-27T05:06:01.712Z,-2.81
2023-01-27T05:07:01.981Z,-2.81
2023-01-27T05:08:01.642Z,-2.86
2023-01-27T05:09:01.875Z,-2.83
2023-01-27T05:10:01.927Z,-2.78
2023-01-27T05:11:01.574Z,-2.88
2023-01-27T05:12:01.318Z,-2.79
2023-01-27T05:13:01.796Z,-2.81
2023-01-27T05:14:01.257Z,-2.85
2023-01-27T05:15:01.744Z,-2.82
2023-01-27T05:16:01.603Z,-2.85
2023-01-27T05:17:02.039Z,-2.83
2023-01-27T05:18:01.740Z,-2.9
2023-01-27T05:19:01.648Z,-2.88
2023-01-27T05:20:01.824Z,-2.85
2023-01-27T05:21:01.631Z,-2.82
2023-01-27T05:22:01.589Z,-2.83
2023-01-27T05:23:01.464Z,-2.86
2023-01-27T05:24:01.699Z,-2.81
2023-01-27T05:25:02.253Z,-2.83
2023-01-27T05:26:01.884Z,-2.83
2023-01-27T05:27:01.775Z,-2.85
2023-01-27T05:28:01.233Z,-2.88
2023-01-27T05:29:01.754Z,-2.86
2023-01-27T05:30:01.449Z,-2.86
2023-01-27T05:31:02.064Z,-2.9
2023-01-27T05:32:01.795Z,-2.83
2023-01-27T05:33:01.139Z,-2.82
2023-01-27T05:34:01.387Z,-2.83
2023-01-27T05:35:01.597Z,-2.91
2023-01-27T05:36:01.600Z,-2.85
2023-01-27T05:37:01.577Z,-2.86
2023-01-27T05:38:01.534Z,-2.88
2023-01-27T05:39:01.569Z,-2.85
2023-01-27T05:40:01.624Z,-2.93
2023-01-27T05:41:01.461Z,-2.86
2023-01-27T05:42:01.530Z,-2.86
2023-01-27T05:43:01.447Z,-2.82
2023-01-27T05:44:01.169Z,-2.82
2023-01-27T05:45:01.132Z,-2.76
2023-01-27T05:46:01.104Z,-2.81
2023-01-27T05:47:01.272Z,-2.81
2023-01-27T05:48:01.113Z,-2.85
2023-01-27T05:49:01.041Z,-2.88
2023-01-27T05:50:01.374Z,-2.86
2023-01-27T05:51:01.292Z,-2.83
2023-01-27T05:52:00.989Z,-2.85
2023-01-27T05:53:01.152Z,-2.83
2023-01-27T05:54:01.197Z,-2.82
2023-01-27T05:55:00.955Z,-2.79
2023-01-27T05:56:00.986Z,-2.88
2023-01-27T05:57:01.040Z,-2.88
2023-01-27T05:58:01.185Z,-2.82
2023-01-27T05:59:00.588Z,-2.86
2023-01-27T06:00:00.803Z,-2.85
2023-01-27T06:01:01.039Z,-2.82
2023-01-27T06:02:00.646Z,-2.73
2023-01-27T06:03:00.887Z,-2.88
2023-01-27T06:04:00.915Z,-2.83
2023-01-27T06:05:00.686Z,-2.78
2023-01-27T06:06:00.652Z,-2.76
2023-01-27T06:07:00.668Z,-2.73
2023-01-27T06:08:02.516Z,-2.73
2023-01-27T06:09:00.876Z,-2.73
2023-01-27T06:10:00.848Z,-2.76
2023-01-27T06:11:00.826Z,-2.72
2023-01-27T06:12:00.562Z,-2.75
2023-01-27T06:13:00.515Z,-2.75
2023-01-27T06:14:00.847Z,-2.82
2023-01-27T06:15:00.496Z,-2.79
2023-01-27T06:16:00.753Z,-2.88
2023-01-27T06:17:00.692Z,-2.82
2023-01-27T06:18:00.563Z,-2.82
2023-01-27T06:19:00.678Z,-2.83
2023-01-27T06:20:00.627Z,-2.88
2023-01-27T06:21:00.344Z,-2.85
2023-01-27T06:22:00.588Z,-2.9
2023-01-27T06:23:00.303Z,-2.88
2023-01-27T06:24:01.019Z,-2.91
2023-01-27T06:25:00.589Z,-2.9
2023-01-27T06:26:00.522Z,-2.93
2023-01-27T06:27:00.227Z,-3
2023-01-27T06:28:00.457Z,-3
2023-01-27T06:29:00.522Z,-2.96
2023-01-27T06:30:00.493Z,-2.99
2023-01-27T06:31:00.415Z,-2.94
2023-01-27T06:32:00.291Z,-2.93
2023-01-27T06:33:00.345Z,-2.99
2023-01-27T06:34:00.092Z,-2.91
2023-01-27T06:35:00.053Z,-2.94
2023-01-27T06:36:00.374Z,-2.96
2023-01-27T06:37:00.266Z,-3.06
2023-01-27T06:38:00.233Z,-3.03
2023-01-27T06:38:59.960Z,-3.01
2023-01-27T06:39:59.686Z,-3.06
2023-01-27T06:40:59.949Z,-3.12
2023-01-27T06:42:00.357Z,-3.09
2023-01-27T06:43:00.125Z,-3.12
2023-01-27T06:43:59.685Z,-3.07
2023-01-27T06:44:59.900Z,-3.14
2023-01-27T06:46:00.421Z,-3.12
2023-01-27T06:46:59.818Z,-3.14
2023-01-27T06:48:00.096Z,-3.22
2023-01-27T06:48:59.739Z,-3.17
2023-01-27T06:49:59.984Z,-3.19
2023-01-27T06:50:59.753Z,-3.18
2023-01-27T06:52:00.092Z,-3.21
2023-01-27T06:52:59.906Z,-3.22
2023-01-27T06:53:59.891Z,-3.18
2023-01-27T06:54:59.878Z,-3.17
2023-01-27T06:55:59.593Z,-3.12
2023-01-27T06:56:59.569Z,-3.15
2023-01-27T06:57:59.860Z,-3.15
2023-01-27T06:58:59.528Z,-3.19
2023-01-27T06:59:59.752Z,-3.17
2023-01-27T07:00:59.782Z,-3.19
2023-01-27T07:01:59.790Z,-3.17
2023-01-27T07:02:59.962Z,-3.24
2023-01-27T07:03:59.160Z,-3.11
2023-01-27T07:04:59.503Z,-3.15
2023-01-27T07:05:59.392Z,-3.18
2023-01-27T07:06:59.351Z,-3.19
2023-01-27T07:07:59.582Z,-3.04
2023-01-27T07:09:00.203Z,-3.07
2023-01-27T07:09:59.282Z,-3.12
2023-01-27T07:10:59.553Z,-3.04
2023-01-27T07:11:59.490Z,-3.04
2023-01-27T07:12:59.473Z,-3.04
2023-01-27T07:13:59.453Z,-3.11
2023-01-27T07:14:59.179Z,-3.03
2023-01-27T07:15:59.370Z,-3.15
2023-01-27T07:16:59.387Z,-3
2023-01-27T07:17:59.452Z,-3.14
2023-01-27T07:18:59.113Z,-3.01
2023-01-27T07:19:59.075Z,-3.11
2023-01-27T07:20:59.509Z,-3.04
2023-01-27T07:21:58.779Z,-3.06
2023-01-27T07:22:59.000Z,-3.09
2023-01-27T07:23:59.355Z,-3.01
2023-01-27T07:24:59.209Z,-3.11
2023-01-27T07:26:00.957Z,-3.18
2023-01-27T07:26:59.007Z,-3.15
2023-01-27T07:27:58.898Z,-3.15
2023-01-27T07:28:59.126Z,-3.19
2023-01-27T07:29:58.866Z,-3.24
2023-01-27T07:30:59.201Z,-3.24
2023-01-27T07:32:00.024Z,-3.17
2023-01-27T07:32:59.977Z,-3.18
2023-01-27T07:34:00.050Z,-3.22
2023-01-27T07:34:59.919Z,-3.24
2023-01-27T07:35:59.912Z,-3.17
2023-01-27T07:36:59.622Z,-3.21
2023-01-27T07:37:59.852Z,-3.28
2023-01-27T07:38:59.850Z,-3.21
2023-01-27T07:39:59.583Z,-3.17
2023-01-27T07:40:59.779Z,-3.19
2023-01-27T07:41:59.446Z,-3.21
2023-01-27T07:42:59.771Z,-3.18
2023-01-27T07:43:59.708Z,-3.17
2023-01-27T07:44:59.700Z,-3.09
2023-01-27T07:45:59.745Z,-3.18
2023-01-27T07:46:59.399Z,-3.12
2023-01-27T07:47:59.390Z,-3.18
2023-01-27T07:48:59.367Z,-3.14
2023-01-27T07:49:59.676Z,-3.12
2023-01-27T07:50:59.583Z,-3.17
2023-01-27T07:51:59.536Z,-3.01
2023-01-27T07:52:59.531Z,-3.12
2023-01-27T07:54:01.853Z,-3.09
2023-01-27T07:54:59.242Z,-3.06
2023-01-27T07:55:59.203Z,-3.07
2023-01-27T07:56:59.176Z,-3.06
2023-01-27T07:58:00.310Z,-3.07
2023-01-27T07:59:00.028Z,-2.94
2023-01-27T08:00:00.049Z,-2.97
2023-01-27T08:01:00.417Z,-3.01
2023-01-27T08:02:00.201Z,-3.06
2023-01-27T08:03:00.511Z,-3.01
2023-01-27T08:03:59.937Z,-3.03
2023-01-27T08:04:59.886Z,-3.06
2023-01-27T08:06:00.217Z,-3.09
2023-01-27T08:07:00.153Z,-3.09
2023-01-27T08:08:03.079Z,-3.01
2023-01-27T08:09:00.049Z,-3.07
2023-01-27T08:09:59.766Z,-3
2023-01-27T08:11:00.013Z,-3
2023-01-27T08:11:59.483Z,-3.11
2023-01-27T08:12:59.720Z,-3.07
2023-01-27T08:13:59.691Z,-3.04
2023-01-27T08:14:59.942Z,-3.04
2023-01-27T08:15:59.662Z,-2.97
2023-01-27T08:16:59.648Z,-3.07
2023-01-27T08:17:59.627Z,-3.06
2023-01-27T08:18:59.320Z,-3.12
2023-01-27T08:19:59.797Z,-3.11
2023-01-27T08:20:59.791Z,-3.17
2023-01-27T08:21:59.860Z,-3.11
2023-01-27T08:22:59.506Z,-3.14
2023-01-27T08:23:59.575Z,-3.03
2023-01-27T08:24:59.732Z,-3
2023-01-27T08:25:59.811Z,-3.04
2023-01-27T08:26:59.438Z,-3.07
2023-01-27T08:27:59.414Z,-3.03
2023-01-27T08:28:59.650Z,-3.04
2023-01-27T08:29:59.342Z,-2.97
2023-01-27T08:30:59.417Z,-2.94
2023-01-27T08:31:59.730Z,-2.96
2023-01-27T08:32:59.272Z,-2.88
2023-01-27T08:33:59.259Z,-2.83
2023-01-27T08:34:59.231Z,-2.82
2023-01-27T08:35:59.213Z,-2.86
2023-01-27T08:36:59.177Z,-2.81
2023-01-27T08:37:59.487Z,-2.91
2023-01-27T08:38:59.422Z,-2.82
2023-01-27T08:39:59.119Z,-2.88
2023-01-27T08:40:59.099Z,-2.83
2023-01-27T08:41:59.181Z,-2.83
2023-01-27T08:42:59.326Z,-2.85
2023-01-27T08:43:59.296Z,-2.9
2023-01-27T08:44:59.017Z,-2.83
2023-01-27T08:45:59.299Z,-2.82
2023-01-27T08:46:59.230Z,-2.79
2023-01-27T08:47:58.940Z,-2.81
2023-01-27T08:48:59.191Z,-2.81
2023-01-27T08:49:58.905Z,-2.73
2023-01-27T08:50:59.046Z,-2.79
2023-01-27T08:51:59.136Z,-2.81
2023-01-27T08:52:58.847Z,-2.79
2023-01-27T08:53:59.152Z,-2.7
2023-01-27T08:54:59.057Z,-2.73
2023-01-27T08:55:59.192Z,-2.72
2023-01-27T08:56:58.490Z,-2.65
2023-01-27T08:57:58.490Z,-2.75
2023-01-27T08:58:58.950Z,-2.76
2023-01-27T08:59:58.961Z,-2.7
2023-01-27T09:00:58.441Z,-2.78
2023-01-27T09:01:58.899Z,-2.9
2023-01-27T09:02:58.378Z,-2.86
2023-01-27T09:03:58.860Z,-2.86
2023-01-27T09:04:59.001Z,-2.88
2023-01-27T09:05:58.824Z,-2.85
2023-01-27T09:06:58.533Z,-2.82
2023-01-27T09:07:58.547Z,-2.81
2023-01-27T09:08:58.493Z,-2.72
2023-01-27T09:10:17.823Z,-2.72
2023-01-27T09:10:58.705Z,-2.75
2023-01-27T09:11:58.675Z,-2.73
2023-01-27T09:12:58.171Z,-2.62
2023-01-27T09:13:58.641Z,-2.6
2023-01-27T09:14:58.093Z,-2.6
2023-01-27T09:15:58.565Z,-2.58
2023-01-27T09:16:58.327Z,-2.6
2023-01-27T09:17:58.564Z,-2.64
2023-01-27T09:18:58.543Z,-2.6
2023-01-27T09:19:58.507Z,-2.64
2023-01-27T09:20:58.514Z,-2.65
2023-01-27T09:21:58.470Z,-2.64
2023-01-27T09:22:58.438Z,-2.64
2023-01-27T09:23:58.343Z,-2.57
2023-01-27T09:24:58.399Z,-2.6
2023-01-27T09:25:58.472Z,-2.53
2023-01-27T09:27:00.710Z,-2.47
2023-01-27T09:27:57.827Z,-2.57
2023-01-27T09:28:58.060Z,-2.47
2023-01-27T09:29:58.036Z,-2.54
2023-01-27T09:30:58.218Z,-2.62
2023-01-27T09:31:58.400Z,-2.62
2023-01-27T09:32:57.979Z,-2.65
2023-01-27T09:33:57.939Z,-2.76
2023-01-27T09:34:57.918Z,-2.7
2023-01-27T09:35:57.919Z,-2.75
2023-01-27T09:36:57.891Z,-2.67
2023-01-27T09:37:57.899Z,-2.73
2023-01-27T09:38:58.104Z,-2.68
2023-01-27T09:39:57.561Z,-2.65
2023-01-27T09:40:58.062Z,-2.6
2023-01-27T09:41:58.178Z,-2.61
2023-01-27T09:42:57.758Z,-2.62
2023-01-27T09:43:57.724Z,-2.6
2023-01-27T09:44:57.717Z,-2.62
2023-01-27T09:45:57.930Z,-2.55
2023-01-27T09:46:59.887Z,-2.57
2023-01-27T09:47:57.388Z,-2.57
2023-01-27T09:48:57.881Z,-2.62
2023-01-27T09:49:57.891Z,-2.61
2023-01-27T09:50:57.352Z,-2.58
2023-01-27T09:51:57.819Z,-2.61
2023-01-27T09:52:57.563Z,-2.64
2023-01-27T09:53:57.531Z,-2.47
2023-01-27T09:54:57.514Z,-2.54
2023-01-27T09:55:57.476Z,-2.47
2023-01-27T09:56:57.711Z,-2.5
2023-01-27T09:57:57.771Z,-2.36
2023-01-27T09:58:57.162Z,-2.39
2023-01-27T09:59:57.642Z,-2.44
2023-01-27T10:00:57.357Z,-2.3
2023-01-27T10:01:57.663Z,-2.25
2023-01-27T10:02:57.584Z,-2.24
2023-01-27T10:03:57.296Z,-2.24
2023-01-27T10:04:57.620Z,-2.24
2023-01-27T10:05:57.531Z,-2.23
2023-01-27T10:06:57.507Z,-2.18
2023-01-27T10:07:57.480Z,-2.2
2023-01-27T10:08:57.225Z,-2.14
2023-01-27T10:09:57.432Z,-2.21
2023-01-27T10:10:57.399Z,-2.09
2023-01-27T10:11:57.382Z,-2.15
2023-01-27T10:12:57.110Z,-2.21
2023-01-27T10:13:57.608Z,-2.23
2023-01-27T10:14:57.083Z,-2.24
2023-01-27T10:15:57.418Z,-2.23
2023-01-27T10:16:57.280Z,-2.24
2023-01-27T10:17:57.279Z,-2.21
2023-01-27T10:18:56.994Z,-2.17
2023-01-27T10:19:57.263Z,-2.21
2023-01-27T10:20:56.934Z,-2.2
2023-01-27T10:21:59.398Z,-2.15
2023-01-27T10:22:57.149Z,-2.14
2023-01-27T10:23:57.219Z,-2.2
2023-01-27T10:24:56.848Z,-2.14
2023-01-27T10:25:57.081Z,-2.14
2023-01-27T10:26:57.076Z,-2.18
2023-01-27T10:27:57.044Z,-2.23
2023-01-27T10:28:57.022Z,-2.25
2023-01-27T10:29:57.111Z,-2.24
2023-01-27T10:30:56.847Z,-2.27
2023-01-27T10:31:56.870Z,-2.18
2023-01-27T10:32:56.939Z,-2.2
2023-01-27T10:33:56.677Z,-2.07
2023-01-27T10:34:56.889Z,-1.96
2023-01-27T10:35:56.902Z,-2.02
2023-01-27T10:36:56.865Z,-1.99
2023-01-27T10:37:56.315Z,-1.86
2023-01-27T10:38:56.823Z,-1.84
2023-01-27T10:39:56.302Z,-1.7
2023-01-27T10:40:56.767Z,-1.7
2023-01-27T10:41:56.777Z,-1.68
2023-01-27T10:42:56.498Z,-1.74
2023-01-27T10:43:56.706Z,-1.56
2023-01-27T10:44:56.437Z,-1.61
2023-01-27T10:45:57.030Z,-1.53
2023-01-27T10:46:56.594Z,-1.52
2023-01-27T10:47:56.367Z,-1.5
2023-01-27T10:48:56.606Z,-1.45
2023-01-27T10:49:56.599Z,-1.48
2023-01-27T10:50:56.300Z,-1.4
2023-01-27T10:51:56.287Z,-1.45
2023-01-27T10:52:56.249Z,-1.43
2023-01-27T10:53:56.500Z,-1.38
2023-01-27T10:54:56.465Z,-1.35
2023-01-27T10:55:56.184Z,-1.38
2023-01-27T10:56:56.446Z,-1.45
2023-01-27T10:57:56.440Z,-1.43
2023-01-27T10:58:56.390Z,-1.48
2023-01-27T11:01:36.184Z,-1.55
2023-01-27T11:02:35.129Z,-1.5
2023-01-27T11:03:35.156Z,-1.38
2023-01-27T11:04:35.792Z,-1.32
2023-01-27T11:05:35.046Z,-1.27
2023-01-27T11:06:35.289Z,-1.21
2023-01-27T11:07:34.997Z,-1.24
2023-01-27T11:08:35.240Z,-1.35
2023-01-27T11:09:34.963Z,-1.37
2023-01-27T11:10:34.683Z,-1.5
2023-01-27T11:11:35.174Z,-1.43
2023-01-27T11:12:35.165Z,-1.52
2023-01-27T11:13:35.139Z,-1.53
2023-01-27T11:14:35.161Z,-1.48
2023-01-27T11:15:34.576Z,-1.6
2023-01-27T11:16:34.756Z,-1.5
2023-01-27T11:17:35.144Z,-1.49
2023-01-27T11:18:35.088Z,-1.45
2023-01-27T11:19:34.754Z,-1.55
2023-01-27T11:20:34.993Z,-1.6
2023-01-27T11:21:34.743Z,-1.71
2023-01-27T11:22:34.710Z,-1.68
2023-01-27T11:23:34.417Z,-1.58
2023-01-27T11:24:34.919Z,-1.63
2023-01-27T11:25:34.634Z,-1.53
2023-01-27T11:26:34.887Z,-1.6
2023-01-27T11:27:34.586Z,-1.6
2023-01-27T11:28:34.829Z,-1.67
2023-01-27T11:29:34.826Z,-1.67
2023-01-27T11:30:35.083Z,-1.7
2023-01-27T11:31:37.635Z,-1.82
2023-01-27T11:32:34.748Z,-1.85
2023-01-27T11:33:34.812Z,-1.82
2023-01-27T11:34:34.702Z,-1.82
2023-01-27T11:35:34.433Z,-1.86
2023-01-27T11:36:34.652Z,-1.71
2023-01-27T11:37:34.378Z,-1.64
2023-01-27T11:38:34.618Z,-1.53
2023-01-27T11:39:34.342Z,-1.5
2023-01-27T11:40:34.568Z,-1.53
2023-01-27T11:41:34.543Z,-1.34
2023-01-27T11:42:34.046Z,-1.24
2023-01-27T11:43:34.528Z,-1.07
2023-01-27T11:44:34.493Z,-0.96
2023-01-27T11:45:34.647Z,-0.93
2023-01-27T11:46:34.181Z,-0.82
2023-01-27T11:47:34.447Z,-0.92
2023-01-27T11:48:34.151Z,-0.82
2023-01-27T11:49:34.462Z,-0.7
2023-01-27T11:50:34.368Z,-0.72
2023-01-27T11:51:34.335Z,-0.62
2023-01-27T11:52:34.327Z,-0.61
2023-01-27T11:53:34.289Z,-0.58
2023-01-27T11:54:34.007Z,-0.64
2023-01-27T11:55:34.005Z,-0.66
2023-01-27T11:56:34.232Z,-0.73
2023-01-27T11:57:34.222Z,-0.85
2023-01-27T11:58:33.943Z,-0.85
2023-01-27T11:59:35.106Z,-0.82
2023-01-27T12:00:35.079Z,-0.82
2023-01-27T12:01:34.583Z,-0.91
2023-01-27T12:02:35.045Z,-0.82
2023-01-27T12:03:34.650Z,-0.85
2023-01-27T12:04:35.240Z,-0.89
2023-01-27T12:05:35.071Z,-0.96
2023-01-27T12:06:34.970Z,-0.82
2023-01-27T12:07:34.689Z,-0.89
2023-01-27T12:08:34.408Z,-0.85
2023-01-27T12:09:34.904Z,-0.8
2023-01-27T12:10:34.901Z,-0.7
2023-01-27T12:11:34.870Z,-0.62
2023-01-27T12:12:34.843Z,-0.69
2023-01-27T12:13:34.552Z,-0.69
2023-01-27T12:14:34.548Z,-0.67
2023-01-27T12:15:34.258Z,-0.55
2023-01-27T12:16:34.773Z,-0.61
2023-01-27T12:17:34.739Z,-0.51
2023-01-27T12:18:34.451Z,-0.52
2023-01-27T12:19:34.209Z,-0.38
2023-01-27T12:20:34.680Z,-0.51
2023-01-27T12:21:34.736Z,-0.55
2023-01-27T12:22:34.371Z,-0.56
2023-01-27T12:23:34.360Z,-0.52
2023-01-27T12:24:34.528Z,-0.54
2023-01-27T12:25:34.579Z,-0.4
2023-01-27T12:26:34.311Z,-0.37
2023-01-27T12:27:34.552Z,-0.46
2023-01-27T12:28:34.525Z,-0.48
2023-01-27T12:29:34.249Z,-0.4
2023-01-27T12:30:34.513Z,-0.49
2023-01-27T12:31:34.897Z,-0.54
2023-01-27T12:32:34.435Z,-0.64
2023-01-27T12:33:34.416Z,-0.62
2023-01-27T12:34:34.186Z,-0.66
2023-01-27T12:35:34.109Z,-0.69
2023-01-27T12:36:34.987Z,-0.61
2023-01-27T12:37:34.426Z,-0.69
2023-01-27T12:38:34.068Z,-0.61
2023-01-27T12:39:33.783Z,-0.67
2023-01-27T12:40:33.827Z,-0.66
2023-01-27T12:41:33.727Z,-0.66
2023-01-27T12:42:33.989Z,-0.67
2023-01-27T12:43:34.236Z,-0.7
2023-01-27T12:44:34.176Z,-0.62
2023-01-27T12:45:33.913Z,-0.69
2023-01-27T12:46:34.264Z,-0.89
2023-01-27T12:47:34.177Z,-0.91
2023-01-27T12:48:34.131Z,-0.92
2023-01-27T12:49:34.073Z,-0.98
2023-01-27T12:50:34.086Z,-1.09
2023-01-27T12:51:34.034Z,-1.07
2023-01-27T12:52:33.766Z,-1.03
2023-01-27T12:53:34.061Z,-1.16
2023-01-27T12:54:33.473Z,-1.13
2023-01-27T12:55:33.992Z,-1.14
2023-01-27T12:56:33.940Z,-1.17
2023-01-27T12:57:33.670Z,-1.07
2023-01-27T12:58:33.965Z,-1.1
2023-01-27T12:59:33.632Z,-1.1
2023-01-27T13:00:34.049Z,-1.06
2023-01-27T13:01:34.136Z,-1.09
2023-01-27T13:02:34.040Z,-1.03
2023-01-27T13:03:34.499Z,-1.07
2023-01-27T13:04:36.015Z,-1.01
2023-01-27T13:05:34.233Z,-1.07
2023-01-27T13:06:34.239Z,-1.06
2023-01-27T13:07:33.937Z,-1.17
2023-01-27T13:08:34.216Z,-1.28
2023-01-27T13:09:34.238Z,-1.24
2023-01-27T13:10:34.130Z,-1.17
2023-01-27T13:11:34.122Z,-1.27
2023-01-27T13:12:33.853Z,-1.27
2023-01-27T13:13:34.075Z,-1.25
2023-01-27T13:14:33.943Z,-1.28